Terminal Aerodrome Forecast
Issued by NWS

Home | Current Version | Previous Version | Text Only | Print | Product List | Glossary On
Versions: 1 2 3 4 5 6 7 8 9 10 11 12 13 14 15 16 17 18
000
FTUS45 KPIH 270300 AAC
TAFSUN
TAF AMD
KSUN 270308Z 2703/2724 VRB05KT P6SM VCSH SCT020 OVC040
      TEMPO 2703/2706 3SM -SN SCT005 BKN015
     FM271300 32006KT P6SM VCSH SCT025 OVC040
     FM272000 15007KT P6SM SCT025 BKN060
      AMD LTD TO CLD VIS AND WIND 2706/2714=

USA.gov is the U.S. government's official web portal to all federal, state and local government web resources and services.